createdAt,value
2022-08-18T00:01:47.397Z,4.40
2022-08-18T00:04:35.049Z,4.27
2022-08-18T00:07:01.083Z,5.00
2022-08-18T00:09:32.014Z,4.23
2022-08-18T00:12:00.289Z,4.77
2022-08-18T00:14:26.911Z,4.40
2022-08-18T00:16:53.895Z,4.93
2022-08-18T00:19:46.894Z,4.50
2022-08-18T00:22:09.217Z,4.00
2022-08-18T00:24:48.221Z,4.10
2022-08-18T00:27:21.585Z,4.20
2022-08-18T00:29:48.954Z,4.20
2022-08-18T00:32:18.460Z,4.30
2022-08-18T00:34:45.185Z,4.23
2022-08-18T00:37:12.093Z,4.67
2022-08-18T00:39:39.827Z,4.43
2022-08-18T00:42:28.823Z,4.00
2022-08-18T00:44:58.462Z,4.40
2022-08-18T00:47:33.157Z,4.30
2022-08-18T00:50:14.824Z,4.60
2022-08-18T00:52:43.859Z,4.60
2022-08-18T00:55:11.055Z,4.40
2022-08-18T00:57:37.683Z,4.37
2022-08-18T01:00:11.923Z,4.57
2022-08-18T01:02:42.329Z,4.20
2022-08-18T01:05:14.296Z,4.37
2022-08-18T01:07:48.202Z,5.40
2022-08-18T01:10:17.914Z,4.30
2022-08-18T01:12:46.875Z,4.53
2022-08-18T01:15:29.292Z,4.10
2022-08-18T01:18:22.662Z,4.43
2022-08-18T01:21:24.235Z,4.27
2022-08-18T01:23:51.692Z,4.20
2022-08-18T01:26:18.434Z,4.00
2022-08-18T01:28:46.361Z,4.27
2022-08-18T01:31:13.741Z,3.77
2022-08-18T01:33:42.137Z,3.73
2022-08-18T01:36:20.805Z,3.40
2022-08-18T01:38:50.190Z,3.87
2022-08-18T01:41:28.707Z,4.27
2022-08-18T01:43:56.900Z,4.50
2022-08-18T01:46:23.549Z,3.90
2022-08-18T01:48:50.177Z,3.70
2022-08-18T01:51:17.796Z,3.63
2022-08-18T01:53:45.018Z,3.43
2022-08-18T01:56:13.047Z,3.70
2022-08-18T01:58:39.676Z,3.70
2022-08-18T02:01:06.357Z,3.77
2022-08-18T02:03:37.341Z,3.40
2022-08-18T02:06:05.674Z,3.60
2022-08-18T02:08:32.604Z,4.20
2022-08-18T02:11:00.189Z,4.50
2022-08-18T02:13:27.067Z,4.40
2022-08-18T02:15:53.793Z,4.60
2022-08-18T02:18:47.851Z,4.90
2022-08-18T02:21:19.293Z,4.67
2022-08-18T02:23:53.027Z,4.60
2022-08-18T02:26:20.634Z,4.93
2022-08-18T02:28:47.293Z,4.63
2022-08-18T02:31:18.947Z,4.47
2022-08-18T02:33:51.848Z,4.00
2022-08-18T02:36:19.836Z,4.00
2022-08-18T02:38:54.809Z,4.50
2022-08-18T02:41:29.301Z,4.40
2022-08-18T02:43:56.873Z,4.23
2022-08-18T02:46:23.674Z,4.17
2022-08-18T02:48:56.758Z,4.13
2022-08-18T02:51:23.521Z,3.97
2022-08-18T02:53:52.463Z,4.60
2022-08-18T02:56:32.974Z,4.90
2022-08-18T02:59:10.243Z,4.53
2022-08-18T03:01:39.430Z,5.20
2022-08-18T03:04:07.971Z,4.80
2022-08-18T03:06:36.500Z,4.73
2022-08-18T03:09:04.422Z,4.20
2022-08-18T03:11:31.139Z,3.93
2022-08-18T03:13:57.934Z,4.33
2022-08-18T03:16:24.655Z,3.77
2022-08-18T03:18:51.799Z,3.67
2022-08-18T03:21:21.642Z,3.87
2022-08-18T03:24:00.771Z,3.60
2022-08-18T03:26:28.647Z,4.00
2022-08-18T03:28:55.392Z,4.40
2022-08-18T03:31:23.166Z,4.47
2022-08-18T03:33:51.506Z,4.30
2022-08-18T03:36:20.295Z,4.27
2022-08-18T03:38:47.526Z,4.93
2022-08-18T04:10:19.223Z,4.23
2022-08-18T04:12:46.637Z,4.53
2022-08-18T04:15:13.351Z,4.20
2022-08-18T04:17:56.337Z,4.07
2022-08-18T04:20:27.078Z,4.30
2022-08-18T04:22:54.332Z,3.90
2022-08-18T04:25:21.758Z,4.10
2022-08-18T04:27:48.480Z,3.97
2022-08-18T04:30:15.168Z,3.70
2022-08-18T04:32:43.413Z,4.13
2022-08-18T04:35:13.658Z,4.03
2022-08-18T04:37:41.915Z,4.37
2022-08-18T04:40:09.384Z,3.90
2022-08-18T04:42:36.257Z,4.40
2022-08-18T04:45:10.406Z,3.93
2022-08-18T04:47:41.744Z,4.83
2022-08-18T04:50:08.985Z,6.37
2022-08-18T04:52:54.086Z,5.27
2022-08-18T04:55:20.725Z,5.23
2022-08-18T04:57:47.398Z,4.93
2022-08-18T05:00:14.378Z,5.93
2022-08-18T05:02:41.456Z,5.93
2022-08-18T05:05:08.523Z,5.97
2022-08-18T05:07:35.220Z,6.90
2022-08-18T05:10:01.905Z,6.67
2022-08-18T05:12:28.872Z,6.90
2022-08-18T05:14:57.191Z,6.17
2022-08-18T05:17:29.108Z,6.67
2022-08-18T05:19:58.716Z,5.70
2022-08-18T05:22:28.664Z,6.23
2022-08-18T05:24:58.132Z,6.27
2022-08-18T05:27:24.787Z,5.90
2022-08-18T05:29:51.889Z,6.47
2022-08-18T05:32:41.099Z,6.20
2022-08-18T05:35:07.620Z,6.47
2022-08-18T05:38:19.353Z,6.20
2022-08-18T05:40:46.260Z,6.30
2022-08-18T05:43:13.283Z,6.40
2022-08-18T05:45:40.590Z,6.67
2022-08-18T05:48:07.229Z,6.10
2022-08-18T05:50:34.968Z,6.17
2022-08-18T05:53:13.310Z,5.63
2022-08-18T05:56:18.607Z,6.27
2022-08-18T05:58:49.169Z,5.30
2022-08-18T06:01:38.814Z,5.47
2022-08-18T06:04:17.726Z,5.20
2022-08-18T06:06:47.924Z,5.20
2022-08-18T06:09:18.083Z,5.10
2022-08-18T06:11:44.756Z,5.50
2022-08-18T06:14:11.513Z,5.13
2022-08-18T06:17:07.432Z,5.80
2022-08-18T06:19:49.501Z,5.10
2022-08-18T06:22:27.060Z,4.67
2022-08-18T06:25:06.889Z,5.20
2022-08-18T06:27:55.953Z,4.70
2022-08-18T06:30:41.501Z,4.47
2022-08-18T06:33:31.642Z,4.03
2022-08-18T06:36:18.706Z,4.50
2022-08-18T06:39:12.583Z,4.17
2022-08-18T06:41:48.950Z,4.00
2022-08-18T06:44:42.479Z,4.03
2022-08-18T06:47:09.086Z,4.20
2022-08-18T06:49:48.516Z,4.20
2022-08-18T06:52:38.330Z,3.93
2022-08-18T06:55:11.353Z,4.10
2022-08-18T06:57:40.057Z,4.33
2022-08-18T07:00:18.972Z,4.40
2022-08-18T07:03:01.261Z,5.20
2022-08-18T07:05:29.569Z,4.60
2022-08-18T07:08:15.828Z,4.30
2022-08-18T07:10:47.104Z,4.60
2022-08-18T07:13:21.318Z,5.10
2022-08-18T07:15:48.464Z,4.60
2022-08-18T07:18:25.319Z,4.87
2022-08-18T07:21:01.433Z,4.80
2022-08-18T07:23:33.988Z,4.43
2022-08-18T07:26:15.662Z,4.47
2022-08-18T07:28:50.661Z,4.20
2022-08-18T07:31:27.081Z,4.00
2022-08-18T07:34:05.698Z,4.00
2022-08-18T07:36:37.028Z,3.70
2022-08-18T07:39:09.343Z,3.90
2022-08-18T07:41:45.189Z,3.70
2022-08-18T07:44:20.256Z,3.50
2022-08-18T07:47:03.754Z,3.27
2022-08-18T07:49:35.627Z,3.40
2022-08-18T07:52:04.576Z,3.43
2022-08-18T07:54:50.377Z,3.50
2022-08-18T07:57:25.330Z,3.30
2022-08-18T08:00:01.877Z,3.60
2022-08-18T08:02:35.406Z,3.67
2022-08-18T08:05:04.998Z,3.93
2022-08-18T08:07:56.253Z,3.80
2022-08-18T08:10:41.843Z,4.17
2022-08-18T08:13:13.048Z,4.37
2022-08-18T08:16:16.801Z,5.67
2022-08-18T08:18:59.657Z,4.17
2022-08-18T08:21:28.670Z,4.27
2022-08-18T08:23:56.169Z,4.50
2022-08-18T08:26:37.932Z,3.93
2022-08-18T08:29:33.089Z,4.10
2022-08-18T08:32:03.030Z,4.43
2022-08-18T08:34:49.477Z,4.20
2022-08-18T08:37:44.473Z,3.87
2022-08-18T08:41:03.536Z,3.77
2022-08-18T08:43:32.462Z,3.30
2022-08-18T08:46:06.777Z,4.40
2022-08-18T08:48:36.465Z,6.38
2022-08-18T08:51:42.464Z,6.25
2022-08-18T08:54:23.465Z,4.97
2022-08-18T08:56:51.056Z,7.40
2022-08-18T08:59:19.226Z,10.50
2022-08-18T09:01:52.057Z,7.45
2022-08-18T09:04:36.325Z,7.70
2022-08-18T09:07:21.093Z,11.82
2022-08-18T09:09:51.876Z,10.02
2022-08-18T09:12:33.436Z,8.88
2022-08-18T09:15:18.615Z,8.02
2022-08-18T09:17:50.604Z,7.40
2022-08-18T09:20:51.238Z,8.05
2022-08-18T09:23:27.605Z,6.97
2022-08-18T09:25:56.024Z,9.32
2022-08-18T09:28:40.221Z,7.10
2022-08-18T09:31:08.702Z,7.03
2022-08-18T09:33:44.390Z,6.00
2022-08-18T09:36:32.819Z,6.50
2022-08-18T09:39:50.274Z,5.35
2022-08-18T09:49:47.692Z,8.57
2022-08-18T09:52:21.037Z,7.75
2022-08-18T09:54:59.988Z,5.75
2022-08-18T09:57:41.294Z,5.57
2022-08-18T10:00:29.700Z,6.00
2022-08-18T10:02:57.815Z,5.55
2022-08-18T10:05:31.031Z,5.15
2022-08-18T10:08:06.551Z,5.20
2022-08-18T10:11:16.522Z,4.43
2022-08-18T10:13:54.408Z,3.60
2022-08-18T10:16:23.736Z,4.03
2022-08-18T10:18:58.760Z,4.47
2022-08-18T10:21:31.576Z,3.92
2022-08-18T10:24:35.078Z,4.30
2022-08-18T10:27:08.797Z,4.30
2022-08-18T10:29:41.658Z,3.78
2022-08-18T10:32:08.315Z,4.03
2022-08-18T10:34:51.743Z,4.35
2022-08-18T10:37:26.336Z,4.30
2022-08-18T10:39:59.058Z,4.10
2022-08-18T10:45:34.571Z,4.63
2022-08-18T10:48:16.623Z,3.95
2022-08-18T10:51:07.258Z,6.15
2022-08-18T10:53:58.894Z,5.10
2022-08-18T10:56:43.850Z,7.28
2022-08-18T10:59:30.581Z,4.88
2022-08-18T11:02:44.038Z,3.95
2022-08-18T11:05:11.873Z,3.80
2022-08-18T11:07:42.894Z,3.53
2022-08-18T11:13:30.711Z,5.15
2022-08-18T11:16:13.688Z,4.32
2022-08-18T11:18:44.365Z,4.25
2022-08-18T11:21:33.041Z,3.33
2022-08-18T11:24:10.213Z,3.40
2022-08-18T11:26:59.023Z,5.35
2022-08-18T11:29:27.122Z,3.28
2022-08-18T11:31:59.626Z,3.33
2022-08-18T11:34:53.078Z,3.58
2022-08-18T11:37:51.226Z,4.40
2022-08-18T11:41:09.716Z,4.07
2022-08-18T11:43:30.029Z,4.35
2022-08-18T11:46:30.433Z,6.70
2022-08-18T11:48:58.205Z,4.82
2022-08-18T11:51:25.429Z,4.00
2022-08-18T11:54:00.793Z,5.75
2022-08-18T11:56:36.091Z,4.80
2022-08-18T11:59:35.054Z,3.33
2022-08-18T12:02:19.358Z,3.00
2022-08-18T12:04:53.298Z,3.55
2022-08-18T12:07:32.101Z,4.72
2022-08-18T12:10:26.102Z,3.38
2022-08-18T12:12:53.778Z,2.92
2022-08-18T12:15:24.713Z,3.30
2022-08-18T12:17:52.591Z,3.35
2022-08-18T12:20:19.904Z,4.43
2022-08-18T12:22:46.769Z,4.40
2022-08-18T12:25:15.109Z,4.63
2022-08-18T12:27:51.267Z,4.00
2022-08-18T12:30:19.021Z,4.82
2022-08-18T12:33:00.891Z,3.53
2022-08-18T12:35:32.628Z,3.10
2022-08-18T12:38:03.333Z,3.03
2022-08-18T12:40:38.268Z,4.30
2022-08-18T12:43:05.945Z,4.00
2022-08-18T12:45:32.760Z,9.30
2022-08-18T12:48:02.370Z,7.68
2022-08-18T12:50:34.161Z,6.18
2022-08-18T12:53:04.458Z,5.43
2022-08-18T12:55:35.468Z,4.82
2022-08-18T12:58:05.217Z,5.63
2022-08-18T13:00:32.554Z,7.32
2022-08-18T13:02:59.279Z,8.05
2022-08-18T13:05:29.633Z,6.93
2022-08-18T13:07:58.162Z,5.85
2022-08-18T13:10:45.726Z,7.65
2022-08-18T13:13:11.570Z,9.82
2022-08-18T13:15:38.325Z,8.07
2022-08-18T13:18:05.246Z,7.00
2022-08-18T13:20:31.927Z,6.88
2022-08-18T13:22:58.636Z,6.20
2022-08-18T13:25:32.846Z,6.05
2022-08-18T13:28:06.080Z,7.22
2022-08-18T13:30:33.113Z,9.38
2022-08-18T13:33:05.302Z,7.70
2022-08-18T13:35:52.386Z,6.45
2022-08-18T13:38:27.108Z,8.25
2022-08-18T13:40:57.696Z,7.45
2022-08-18T13:43:30.776Z,6.50
2022-08-18T13:45:57.418Z,8.63
2022-08-18T13:48:25.341Z,7.88
2022-08-18T13:50:56.334Z,7.03
2022-08-18T13:53:23.649Z,9.25
2022-08-18T13:55:51.598Z,8.93
2022-08-18T13:58:20.853Z,8.95
2022-08-18T14:00:51.547Z,6.30
2022-08-18T14:03:20.590Z,8.43
2022-08-18T14:06:02.889Z,8.05
2022-08-18T14:08:33.878Z,8.15
2022-08-18T14:11:02.245Z,6.72
2022-08-18T14:13:29.034Z,6.50
2022-08-18T14:16:05.240Z,6.00
2022-08-18T14:18:31.861Z,6.78
2022-08-18T14:21:16.949Z,6.18
2022-08-18T14:24:10.736Z,5.00
2022-08-18T14:26:50.263Z,4.28
2022-08-18T14:29:17.645Z,3.78
2022-08-18T14:32:05.194Z,3.90
2022-08-18T14:34:31.876Z,5.47
2022-08-18T14:36:58.701Z,4.10
2022-08-18T14:39:25.653Z,4.05
2022-08-18T14:41:55.958Z,5.07
2022-08-18T14:44:24.258Z,5.25
2022-08-18T14:46:52.333Z,3.60
2022-08-18T14:49:28.159Z,5.30
2022-08-18T14:51:56.059Z,4.03
2022-08-18T14:54:23.667Z,4.20
2022-08-18T14:56:55.082Z,4.47
2022-08-18T14:59:23.181Z,4.32
2022-08-18T15:01:49.927Z,3.83
2022-08-18T15:04:19.018Z,5.72
2022-08-18T15:06:55.928Z,4.38
2022-08-18T15:09:26.808Z,4.00
2022-08-18T15:11:55.884Z,3.80
2022-08-18T15:14:32.777Z,4.20
2022-08-18T15:17:13.255Z,4.45
2022-08-18T15:19:58.538Z,5.13
2022-08-18T15:22:45.782Z,4.60
2022-08-18T15:25:30.883Z,5.15
2022-08-18T15:27:58.911Z,4.22
2022-08-18T15:30:25.663Z,4.80
2022-08-18T15:32:53.798Z,4.50
2022-08-18T15:35:20.764Z,4.07
2022-08-18T15:37:48.271Z,5.45
2022-08-18T15:40:31.134Z,5.22
2022-08-18T15:43:06.752Z,5.32
2022-08-18T15:45:43.312Z,5.72
2022-08-18T15:48:18.808Z,3.72
2022-08-18T15:50:51.247Z,3.70
2022-08-18T15:53:29.981Z,4.53
2022-08-18T15:55:57.062Z,3.50
2022-08-18T15:58:26.899Z,4.15
2022-08-18T16:00:56.190Z,3.60
2022-08-18T16:03:25.593Z,3.80
2022-08-18T16:05:54.465Z,3.30
2022-08-18T16:08:22.219Z,3.45
2022-08-18T16:10:49.010Z,3.50
2022-08-18T16:13:15.697Z,3.30
2022-08-18T16:15:46.470Z,2.90
2022-08-18T16:18:13.457Z,3.80
2022-08-18T16:20:40.217Z,2.92
2022-08-18T16:23:07.482Z,4.50
2022-08-18T16:25:34.277Z,3.40
2022-08-18T16:28:01.155Z,3.33
2022-08-18T16:30:28.131Z,3.47
2022-08-18T16:32:54.980Z,3.30
2022-08-18T16:35:23.276Z,2.72
2022-08-18T16:37:49.953Z,2.63
2022-08-18T16:40:17.715Z,3.25
2022-08-18T16:42:44.440Z,2.97
2022-08-18T16:45:11.275Z,3.40
2022-08-18T16:47:40.491Z,2.78
2022-08-18T16:50:12.037Z,2.95
2022-08-18T16:52:39.099Z,2.55
2022-08-18T16:55:06.092Z,2.78
2022-08-18T16:57:55.469Z,2.78
2022-08-18T17:00:41.933Z,2.88
2022-08-18T17:03:27.401Z,2.60
2022-08-18T17:06:07.814Z,2.90
2022-08-18T17:08:34.527Z,2.83
2022-08-18T17:11:13.766Z,3.33
2022-08-18T17:13:41.126Z,2.95
2022-08-18T17:16:08.325Z,2.53
2022-08-18T17:18:36.037Z,2.78
2022-08-18T17:21:06.757Z,2.40
2022-08-18T17:23:33.510Z,2.45
2022-08-18T17:26:00.607Z,3.00
2022-08-18T17:28:50.505Z,2.40
2022-08-18T17:31:21.151Z,2.40
2022-08-18T17:33:47.864Z,2.10
2022-08-18T17:36:23.341Z,2.35
2022-08-18T17:38:54.180Z,2.00
2022-08-18T17:41:21.197Z,2.33
2022-08-18T17:43:48.168Z,2.35
2022-08-18T17:46:23.596Z,2.25
2022-08-18T17:48:55.513Z,2.30
2022-08-18T17:51:37.465Z,2.45
2022-08-18T17:54:23.329Z,2.67
2022-08-18T17:56:54.734Z,2.13
2022-08-18T17:59:51.127Z,2.78
2022-08-18T18:02:29.838Z,2.60
2022-08-18T18:05:07.127Z,2.35
2022-08-18T18:07:54.647Z,2.40
2022-08-18T18:10:40.195Z,2.22
2022-08-18T18:13:25.547Z,2.17
2022-08-18T18:15:54.377Z,2.55
2022-08-18T18:18:24.400Z,2.40
2022-08-18T18:21:17.437Z,2.80
2022-08-18T18:23:49.532Z,2.70
2022-08-18T18:26:30.095Z,3.42
2022-08-18T18:29:14.382Z,2.38
2022-08-18T18:31:42.257Z,2.67
2022-08-18T18:34:30.492Z,2.70
2022-08-18T18:36:57.435Z,2.53
2022-08-18T18:39:33.125Z,2.83
2022-08-18T18:42:17.541Z,2.70
2022-08-18T18:44:56.206Z,2.80
2022-08-18T18:47:49.773Z,2.92
2022-08-18T18:50:53.103Z,2.70
2022-08-18T18:53:44.453Z,4.00
2022-08-18T18:56:36.306Z,2.85
2022-08-18T18:59:02.903Z,3.00
2022-08-18T19:01:38.936Z,2.85
2022-08-18T19:04:15.904Z,2.92
2022-08-18T19:06:48.419Z,2.95
2022-08-18T19:09:23.139Z,3.15
2022-08-18T19:12:05.164Z,3.13
2022-08-18T19:14:38.013Z,3.13
2022-08-18T19:17:13.378Z,3.25
2022-08-18T19:19:48.455Z,3.10
2022-08-18T19:22:24.784Z,3.35
2022-08-18T19:25:14.691Z,3.25
2022-08-18T19:27:49.774Z,3.70
2022-08-18T19:30:16.761Z,3.30
2022-08-18T19:32:46.093Z,3.78
2022-08-18T19:35:19.527Z,3.25
2022-08-18T19:38:01.890Z,3.20
2022-08-18T19:41:05.486Z,3.53
2022-08-18T19:43:38.576Z,3.90
2022-08-18T19:46:23.082Z,3.75
2022-08-18T19:49:00.645Z,4.07
2022-08-18T19:51:33.513Z,3.60
2022-08-18T19:54:27.805Z,3.60
2022-08-18T19:57:08.590Z,3.42
2022-08-18T19:59:42.407Z,3.78
2022-08-18T20:02:35.011Z,4.13
2022-08-18T20:05:13.551Z,3.80
2022-08-18T20:07:47.096Z,3.65
2022-08-18T20:10:30.918Z,4.18
2022-08-18T20:13:23.596Z,4.20
2022-08-18T20:16:13.353Z,4.05
2022-08-18T20:18:44.831Z,3.95
2022-08-18T20:21:22.956Z,3.73
2022-08-18T20:24:07.267Z,3.83
2022-08-18T20:26:38.082Z,3.90
2022-08-18T20:29:05.893Z,4.20
2022-08-18T20:31:49.049Z,4.03
2022-08-18T20:34:17.061Z,4.27
2022-08-18T20:36:44.496Z,4.60
2022-08-18T20:39:54.812Z,3.53
2022-08-18T20:42:21.479Z,4.87
2022-08-18T20:44:48.100Z,4.40
2022-08-18T20:47:23.698Z,4.20
2022-08-18T20:50:12.484Z,4.07
2022-08-18T20:53:01.138Z,4.70
2022-08-18T20:55:45.706Z,4.53
2022-08-18T20:58:17.357Z,3.97
2022-08-18T21:00:46.105Z,4.50
2022-08-18T21:03:13.878Z,4.53
2022-08-18T21:05:43.598Z,4.67
2022-08-18T21:08:16.412Z,4.20
2022-08-18T21:10:54.177Z,4.70
2022-08-18T21:13:41.928Z,4.33
2022-08-18T21:16:09.611Z,4.80
2022-08-18T21:18:36.438Z,4.13
2022-08-18T21:21:05.183Z,4.77
2022-08-18T21:23:37.584Z,4.50
2022-08-18T21:26:13.895Z,4.90
2022-08-18T21:28:42.521Z,4.50
2022-08-18T21:31:44.213Z,4.43
2022-08-18T21:34:11.450Z,4.47
2022-08-18T21:36:39.607Z,4.60
2022-08-18T21:39:16.152Z,4.90
2022-08-18T21:41:49.380Z,4.47
2022-08-18T21:44:19.810Z,4.87
2022-08-18T21:46:46.425Z,4.43
2022-08-18T21:49:14.269Z,4.40
2022-08-18T21:51:46.328Z,4.53
2022-08-18T21:54:18.730Z,4.70
2022-08-18T21:56:45.549Z,4.23
2022-08-18T21:59:17.392Z,4.63
2022-08-18T22:02:02.138Z,4.40
2022-08-18T22:04:28.815Z,4.57
2022-08-18T22:06:57.485Z,4.50
2022-08-18T22:09:44.991Z,4.20
2022-08-18T22:12:52.044Z,4.37
2022-08-18T22:15:21.879Z,4.60
2022-08-18T22:17:59.599Z,4.47
2022-08-18T22:20:46.413Z,4.10
2022-08-18T22:23:31.581Z,4.17
2022-08-18T22:26:27.408Z,4.30
2022-08-18T22:28:55.447Z,4.20
2022-08-18T22:31:23.177Z,4.53
2022-08-18T22:33:50.772Z,4.57
2022-08-18T22:36:19.917Z,4.73
2022-08-18T22:38:47.133Z,4.50
2022-08-18T22:41:14.422Z,4.50
2022-08-18T22:43:41.055Z,4.30
2022-08-18T22:46:07.716Z,3.90
2022-08-18T22:48:34.354Z,4.10
2022-08-18T22:51:01.005Z,3.73
2022-08-18T22:53:28.558Z,4.00
2022-08-18T22:55:57.317Z,4.40
2022-08-18T22:58:28.321Z,3.77
2022-08-18T23:00:56.182Z,4.23
2022-08-18T23:03:32.287Z,4.20
2022-08-18T23:06:11.695Z,4.30
2022-08-18T23:08:55.663Z,4.30
2022-08-18T23:11:23.686Z,4.07
2022-08-18T23:13:50.406Z,4.10
2022-08-18T23:16:31.848Z,4.00
2022-08-18T23:19:02.039Z,4.40
2022-08-18T23:21:34.349Z,4.20
2022-08-18T23:24:06.721Z,3.90
2022-08-18T23:26:34.174Z,3.70
2022-08-18T23:29:01.227Z,3.70
2022-08-18T23:31:27.879Z,3.73
2022-08-18T23:33:54.504Z,3.80
2022-08-18T23:36:21.163Z,3.67
2022-08-18T23:38:47.837Z,4.10
2022-08-18T23:41:14.941Z,3.70
2022-08-18T23:43:42.387Z,4.17
2022-08-18T23:46:29.060Z,3.80
2022-08-18T23:48:57.269Z,4.30
2022-08-18T23:51:29.126Z,3.70
2022-08-18T23:54:00.381Z,4.10
2022-08-18T23:56:30.650Z,3.50
2022-08-18T23:58:57.563Z,4.10
